Terminal Aerodrome Forecast
Issued by NWS

Home | Current Version | Previous Version | Text Only | Print | Product List | Glossary On
Versions: 1 2 3 4 5 6 7 8 9 10 11 12 13 14 15 16 17
813
FTUS46 KMTR 271133
TAFSJC
TAF
KSJC 271133Z 2712/2812 27008KT P6SM FEW030
     FM271700 31011KT P6SM FEW035
     FM272100 30015G22KT P6SM FEW035
     FM280400 31010KT P6SM FEW030
     FM281000 29006KT P6SM SKC=

USA.gov is the U.S. government's official web portal to all federal, state and local government web resources and services.